Appam, ND

3:34 PM CDT on May 05, 2015 (GMT -0500)
KNDALAMO3 | | Change Station
CLOSE
Current Station
Personal Weather Station
Location: Alamo, ND
Elevation: 2090 ft
Nearby Weather Stations

Elev 2090 ft 48.49 °N, 103.51 °W | Updated 7 minutes ago

Clear
Clear
77.8 °F
Feels Like 78 °F
N
15.0
Wind Variable Wind from South
Gusts 33.0 mph

Today
High -- | Low -- °F
--% Chance of Precip.
Yesterday
High -- | Low -- °F
Precip. -- in
6:27 AM 9:13 PM
Full, 97% visible
Pressure 29.82 in
Visibility 10.0 miles
Clouds Clear
Heat Index 78 °F
Dew Point 44 °F
Humidity 30%
Rainfall 0.00 in
Snow Depth Not available.
UV 4.9 out of 12
Pollen 10.30 out of 12
Air Quality Not available.
Flu Activity Regional
METAR KD50 052015Z AUTO 17015G26KT 10SM CLR 25/04 A2982 RMK AO2

More Conditions Fewer Conditions

Pressure 29.82 in
Visibility 10.0 miles
Clouds Clear
Heat Index 78 °F
Dew Point 44 °F
Humidity 30%
Rainfall 0.00 in
Snow Depth Not available.
UV 4.9 out of 12
Pollen 10.30 out of 12
Air Quality Not available.
Flu Activity Regional
METAR KD50 052015Z AUTO 17015G26KT 10SM CLR 25/04 A2982 RMK AO2

More Conditions Fewer Conditions

10-Day Weather Forecast

Almanac

Astronomy

May. 05, 2015 Rise Set
Actual Time
Civil Twilight
Nautical Twilight
Astronomical Twilight
Moon
Length of Visible Light
Length of Day
Tomorrow will be .
, % of the Moon is Illuminated

Today's Extremes

State Highs State Lows

Community

WunderPhotos

Upload Photos

1,818,970 photos uploaded!

WunderBlogs® & News

Nearby

Air Quality

  Air Quality AQ Index Pollutant
Not available.

Snow Depth

Station Depth Elevation

Earthquake Activity

City Distance Mag. Time & Date
Minimum magnitude displayed is 2.5.

Coastal Water Temperatures

Place Temperature

Stations

Nearby Weather Stations

Station Location Temp. Windchill Dew Point Humidity Wind Precip. Elev Updated Type